createdAt,value
2019-04-01T00:02:07.386Z,4.70
2019-04-01T00:04:36.231Z,4.60
2019-04-01T00:07:05.288Z,4.50
2019-04-01T00:09:34.126Z,4.40
2019-04-01T00:12:02.909Z,4.40
2019-04-01T00:14:34.454Z,4.50
2019-04-01T00:17:03.302Z,4.50
2019-04-01T00:19:32.099Z,4.60
2019-04-01T00:22:01.152Z,4.60
2019-04-01T00:24:29.905Z,4.60
2019-04-01T00:26:58.693Z,4.60
2019-04-01T00:29:29.184Z,4.50
2019-04-01T00:32:00.754Z,4.50
2019-04-01T00:34:29.704Z,4.50
2019-04-01T00:36:58.544Z,4.40
2019-04-01T00:39:27.379Z,4.40
2019-04-01T00:41:59.717Z,4.40
2019-04-01T00:44:28.518Z,4.40
2019-04-01T00:46:57.281Z,4.40
2019-04-01T00:49:26.268Z,4.40
2019-04-01T00:51:57.600Z,4.40
2019-04-01T00:54:27.668Z,4.30
2019-04-01T00:56:58.007Z,4.30
2019-04-01T00:59:28.228Z,4.20
2019-04-01T01:01:56.997Z,4.10
2019-04-01T01:04:25.910Z,4.10
2019-04-01T01:06:54.743Z,4.00
2019-04-01T01:09:25.202Z,3.90
2019-04-01T01:11:54.289Z,3.90
2019-04-01T01:14:23.070Z,3.90
2019-04-01T01:16:53.340Z,3.90
2019-04-01T01:19:22.116Z,3.80
2019-04-01T01:21:50.907Z,3.70
2019-04-01T01:24:19.662Z,3.70
2019-04-01T01:26:48.500Z,3.70
2019-04-01T01:29:17.371Z,3.70
2019-04-01T01:31:46.139Z,3.60
2019-04-01T01:34:15.032Z,3.60
2019-04-01T01:36:43.945Z,3.60
2019-04-01T01:39:12.755Z,3.60
2019-04-01T01:41:41.496Z,3.60
2019-04-01T01:44:10.233Z,3.60
2019-04-01T01:46:38.969Z,3.70
2019-04-01T01:49:07.894Z,3.70
2019-04-01T01:51:36.860Z,3.70
2019-04-01T01:54:05.606Z,3.60
2019-04-01T01:56:34.457Z,3.60
2019-04-01T01:59:03.200Z,3.60
2019-04-01T02:01:31.989Z,3.50
2019-04-01T02:04:00.842Z,3.40
2019-04-01T02:06:29.622Z,3.50
2019-04-01T02:08:58.441Z,3.50
2019-04-01T02:11:27.279Z,3.40
2019-04-01T02:13:56.461Z,3.40
2019-04-01T02:16:25.468Z,3.30
2019-04-01T02:18:54.263Z,3.30
2019-04-01T02:21:23.084Z,3.20
2019-04-01T02:23:52.072Z,3.30
2019-04-01T02:26:21.114Z,3.30
2019-04-01T02:28:49.922Z,3.30
2019-04-01T02:31:18.691Z,3.30
2019-04-01T02:33:47.437Z,3.30
2019-04-01T02:36:16.189Z,3.20
2019-04-01T02:38:44.947Z,3.10
2019-04-01T02:41:13.737Z,3.20
2019-04-01T02:43:42.473Z,3.20
2019-04-01T02:46:11.269Z,3.20
2019-04-01T02:48:40.045Z,3.20
2019-04-01T02:51:08.780Z,3.10
2019-04-01T02:53:37.569Z,3.00
2019-04-01T02:56:06.382Z,2.90
2019-04-01T02:58:35.397Z,2.90
2019-04-01T03:01:04.279Z,2.70
2019-04-01T03:03:33.027Z,2.70
2019-04-01T03:06:01.819Z,2.80
2019-04-01T03:08:30.646Z,2.80
2019-04-01T03:10:59.498Z,2.70
2019-04-01T03:13:28.314Z,2.70
2019-04-01T03:15:57.118Z,2.70
2019-04-01T03:18:25.919Z,2.70
2019-04-01T03:20:54.673Z,2.60
2019-04-01T03:23:23.564Z,2.60
2019-04-01T03:25:52.423Z,2.60
2019-04-01T03:28:21.258Z,2.60
2019-04-01T03:30:49.981Z,2.60
2019-04-01T03:33:18.760Z,2.60
2019-04-01T03:35:47.528Z,2.60
2019-04-01T03:38:16.314Z,2.60
2019-04-01T03:40:47.126Z,2.50
2019-04-01T03:43:15.923Z,2.40
2019-04-01T03:45:45.178Z,2.40
2019-04-01T03:48:14.005Z,2.50
2019-04-01T03:50:42.757Z,2.40
2019-04-01T03:53:11.538Z,2.30
2019-04-01T03:55:40.301Z,2.20
2019-04-01T03:58:09.091Z,2.30
2019-04-01T04:00:37.854Z,2.20
2019-04-01T04:03:06.746Z,2.30
2019-04-01T04:05:35.559Z,2.30
2019-04-01T04:08:04.360Z,2.20
2019-04-01T04:10:33.108Z,2.00
2019-04-01T04:13:01.847Z,2.10
2019-04-01T04:15:30.675Z,2.00
2019-04-01T04:17:59.460Z,1.90
2019-04-01T04:20:28.256Z,2.00
2019-04-01T04:22:57.007Z,2.10
2019-04-01T04:25:25.767Z,2.10
2019-04-01T04:27:54.585Z,2.10
2019-04-01T04:30:23.397Z,2.10
2019-04-01T04:32:52.191Z,2.20
2019-04-01T04:35:21.039Z,2.20
2019-04-01T04:37:49.827Z,2.30
2019-04-01T04:40:18.606Z,2.20
2019-04-01T04:42:47.473Z,2.20
2019-04-01T04:45:16.340Z,2.20
2019-04-01T04:47:45.165Z,2.10
2019-04-01T04:50:13.977Z,2.10
2019-04-01T04:52:42.804Z,2.20
2019-04-01T04:55:11.625Z,2.10
2019-04-01T04:57:40.391Z,2.10
2019-04-01T05:00:09.169Z,2.10
2019-04-01T05:02:38.000Z,2.10
2019-04-01T05:05:07.116Z,2.20
2019-04-01T05:07:35.864Z,2.30
2019-04-01T05:10:07.779Z,2.40
2019-04-01T05:12:36.568Z,2.50
2019-04-01T05:15:06.883Z,2.50
2019-04-01T05:17:35.713Z,2.60
2019-04-01T05:20:05.327Z,2.60
2019-04-01T05:22:34.802Z,2.70
2019-04-01T05:25:04.435Z,2.80
2019-04-01T05:27:35.067Z,3.00
2019-04-01T05:30:05.891Z,3.30
2019-04-01T05:32:36.578Z,3.50
2019-04-01T05:35:06.293Z,3.70
2019-04-01T05:37:35.526Z,3.80
2019-04-01T05:40:05.625Z,3.90
2019-04-01T05:42:34.497Z,4.20
2019-04-01T05:45:03.974Z,4.30
2019-04-01T05:47:43.293Z,4.50
2019-04-01T05:50:12.209Z,4.70
2019-04-01T05:52:41.034Z,5.10
2019-04-01T05:55:09.769Z,5.10
2019-04-01T05:57:38.624Z,5.60
2019-04-01T06:00:08.352Z,5.70
2019-04-01T06:02:37.132Z,5.90
2019-04-01T06:05:07.342Z,6.10
2019-04-01T06:07:36.695Z,6.40
2019-04-01T06:10:06.990Z,6.40
2019-04-01T06:12:36.063Z,6.70
2019-04-01T06:15:06.532Z,6.90
2019-04-01T06:17:35.291Z,7.00
2019-04-01T06:20:06.540Z,7.20
2019-04-01T06:22:35.275Z,7.40
2019-04-01T06:25:05.307Z,7.60
2019-04-01T06:27:34.177Z,7.80
2019-04-01T06:30:03.294Z,7.80
2019-04-01T06:32:32.270Z,8.00
2019-04-01T06:35:01.383Z,7.60
2019-04-01T06:37:30.153Z,7.70
2019-04-01T06:39:59.683Z,7.70
2019-04-01T06:42:28.758Z,7.80
2019-04-01T06:44:57.520Z,7.90
2019-04-01T06:47:26.347Z,7.40
2019-04-01T06:49:55.153Z,7.60
2019-04-01T06:52:23.898Z,8.00
2019-04-01T06:54:52.704Z,8.20
2019-04-01T06:57:21.545Z,8.90
2019-04-01T06:59:50.993Z,9.30
2019-04-01T07:02:19.795Z,9.10
2019-04-01T07:04:48.624Z,9.00
2019-04-01T07:07:19.274Z,9.50
2019-04-01T07:09:50.636Z,9.50
2019-04-01T07:12:18.653Z,9.20
2019-04-01T07:14:47.423Z,9.00
2019-04-01T07:17:16.242Z,9.20
2019-04-01T07:19:45.394Z,9.40
2019-04-01T07:22:14.134Z,9.90
2019-04-01T07:24:43.071Z,10.20
2019-04-01T07:27:12.024Z,10.20
2019-04-01T07:29:40.849Z,10.40
2019-04-01T07:32:09.893Z,10.70
2019-04-01T07:34:38.669Z,10.80
2019-04-01T07:37:07.660Z,10.90
2019-04-01T07:39:36.405Z,11.00
2019-04-01T07:42:05.170Z,11.40
2019-04-01T07:44:33.655Z,11.50
2019-04-01T07:47:02.160Z,11.90
2019-04-01T07:49:30.734Z,12.30
2019-04-01T07:51:59.233Z,12.30
2019-04-01T07:54:27.955Z,12.40
2019-04-01T07:56:56.491Z,12.50
2019-04-01T07:59:25.320Z,11.80
2019-04-01T08:01:53.847Z,12.10
2019-04-01T08:04:22.507Z,12.60
2019-04-01T08:06:51.234Z,12.70
2019-04-01T08:09:20.245Z,12.20
2019-04-01T08:11:50.214Z,12.70
2019-04-01T08:14:18.811Z,12.70
2019-04-01T08:16:47.301Z,13.10
2019-04-01T08:19:15.899Z,13.30
2019-04-01T08:21:44.440Z,12.60
2019-04-01T08:24:13.194Z,12.60
2019-04-01T08:26:41.671Z,13.00
2019-04-01T08:29:10.188Z,13.20
2019-04-01T08:31:38.713Z,13.40
2019-04-01T08:34:07.218Z,13.80
2019-04-01T08:36:35.845Z,13.60
2019-04-01T08:39:07.538Z,13.70
2019-04-01T08:41:36.080Z,14.00
2019-04-01T08:44:04.690Z,14.30
2019-04-01T08:46:33.222Z,14.80
2019-04-01T08:49:01.715Z,14.80
2019-04-01T08:51:30.214Z,14.70
2019-04-01T08:53:58.918Z,14.90
2019-04-01T08:56:28.239Z,14.90
2019-04-01T08:58:56.798Z,14.90
2019-04-01T09:01:35.272Z,15.10
2019-04-01T09:03:55.777Z,15.30
2019-04-01T09:06:24.289Z,15.20
2019-04-01T09:08:53.896Z,14.70
2019-04-01T09:11:22.449Z,14.60
2019-04-01T09:13:51.454Z,15.10
2019-04-01T09:16:20.300Z,15.40
2019-04-01T09:18:48.789Z,15.50
2019-04-01T09:21:17.378Z,15.80
2019-04-01T09:23:45.945Z,14.90
2019-04-01T09:26:14.481Z,14.80
2019-04-01T09:28:43.009Z,15.00
2019-04-01T09:31:11.472Z,15.50
2019-04-01T09:33:39.929Z,14.80
2019-04-01T09:36:08.393Z,14.70
2019-04-01T09:38:36.912Z,15.30
2019-04-01T09:41:05.389Z,15.00
2019-04-01T09:43:33.899Z,15.80
2019-04-01T09:46:02.460Z,15.80
2019-04-01T09:48:30.934Z,16.60
2019-04-01T09:50:59.497Z,16.70
2019-04-01T09:53:27.970Z,17.50
2019-04-01T09:55:56.536Z,17.40
2019-04-01T09:58:25.009Z,16.10
2019-04-01T10:00:53.720Z,15.40
2019-04-01T10:03:22.304Z,15.40
2019-04-01T10:05:50.902Z,16.10
2019-04-01T10:08:19.468Z,16.50
2019-04-01T10:10:47.990Z,16.30
2019-04-01T10:13:16.522Z,16.80
2019-04-01T10:15:45.087Z,17.20
2019-04-01T10:18:13.628Z,17.00
2019-04-01T10:20:42.116Z,17.10
2019-04-01T10:23:10.636Z,16.70
2019-04-01T10:25:39.107Z,17.50
2019-04-01T10:28:07.618Z,17.90
2019-04-01T10:30:36.192Z,18.10
2019-04-01T10:33:06.488Z,17.70
2019-04-01T10:35:35.135Z,17.40
2019-04-01T10:38:03.697Z,17.10
2019-04-01T10:40:32.253Z,16.50
2019-04-01T10:43:00.771Z,16.80
2019-04-01T10:45:29.294Z,17.00
2019-04-01T10:47:57.935Z,17.70
2019-04-01T10:50:26.531Z,18.20
2019-04-01T10:52:55.258Z,18.60
2019-04-01T10:55:23.945Z,18.50
2019-04-01T10:57:54.142Z,19.00
2019-04-01T11:00:22.986Z,18.80
2019-04-01T11:02:51.628Z,18.50
2019-04-01T11:05:20.189Z,18.90
2019-04-01T11:07:48.673Z,19.10
2019-04-01T11:10:17.479Z,19.40
2019-04-01T11:12:46.070Z,19.50
2019-04-01T11:15:15.733Z,19.60
2019-04-01T11:17:44.465Z,19.80
2019-04-01T11:20:13.146Z,19.90
2019-04-01T11:22:41.705Z,19.80
2019-04-01T11:25:10.309Z,19.80
2019-04-01T11:27:38.888Z,19.90
2019-04-01T11:30:08.382Z,20.00
2019-04-01T11:32:37.168Z,20.40
2019-04-01T11:35:07.712Z,19.90
2019-04-01T11:37:36.294Z,20.30
2019-04-01T11:40:11.392Z,20.70
2019-04-01T11:42:40.376Z,20.60
2019-04-01T11:45:09.426Z,20.70
2019-04-01T11:47:37.946Z,20.00
2019-04-01T11:50:07.088Z,20.50
2019-04-01T11:52:35.593Z,20.90
2019-04-01T11:55:06.576Z,21.20
2019-04-01T11:57:35.514Z,20.70
2019-04-01T12:00:11.460Z,21.10
2019-04-01T12:02:38.711Z,21.70
2019-04-01T12:05:07.812Z,21.50
2019-04-01T12:07:36.285Z,21.80
2019-04-01T12:10:07.470Z,21.50
2019-04-01T12:12:35.515Z,21.90
2019-04-01T12:15:05.127Z,22.00
2019-04-01T12:17:33.604Z,21.30
2019-04-01T12:20:02.101Z,20.80
2019-04-01T12:22:30.605Z,20.70
2019-04-01T12:24:59.335Z,21.40
2019-04-01T12:27:27.932Z,22.50
2019-04-01T12:29:56.493Z,22.10
2019-04-01T12:32:25.129Z,21.10
2019-04-01T12:34:53.600Z,22.20
2019-04-01T12:37:22.134Z,21.90
2019-04-01T12:39:50.641Z,21.90
2019-04-01T12:42:19.707Z,22.70
2019-04-01T12:44:48.282Z,22.30
2019-04-01T12:47:16.755Z,22.60
2019-04-01T12:49:45.221Z,23.00
2019-04-01T12:52:13.792Z,23.20
2019-04-01T12:54:42.254Z,23.10
2019-04-01T12:57:10.716Z,23.00
2019-04-01T12:59:39.240Z,22.60
2019-04-01T13:02:07.805Z,22.10
2019-04-01T13:04:36.422Z,22.30
2019-04-01T13:07:05.376Z,22.70
2019-04-01T13:09:34.213Z,22.70
2019-04-01T13:12:02.745Z,22.90
2019-04-01T13:14:31.200Z,23.80
2019-04-01T13:16:59.728Z,24.60
2019-04-01T13:19:28.223Z,24.80
2019-04-01T13:21:56.774Z,24.40
2019-04-01T13:24:25.234Z,24.20
2019-04-01T13:26:53.777Z,24.40
2019-04-01T13:29:23.303Z,24.00
2019-04-01T13:31:52.927Z,23.40
2019-04-01T13:34:21.750Z,22.70
2019-04-01T13:36:50.358Z,22.40
2019-04-01T13:39:18.914Z,22.10
2019-04-01T13:41:47.489Z,22.70
2019-04-01T13:44:15.956Z,23.00
2019-04-01T13:46:48.176Z,22.50
2019-04-01T13:49:14.738Z,22.10
2019-04-01T13:51:43.912Z,23.30
2019-04-01T13:54:12.483Z,23.30
2019-04-01T13:56:41.046Z,23.70
2019-04-01T13:59:11.071Z,24.00
2019-04-01T14:01:40.089Z,24.30
2019-04-01T14:04:08.677Z,22.30
2019-04-01T14:06:37.147Z,21.50
2019-04-01T14:09:06.981Z,21.50
2019-04-01T14:11:35.533Z,21.40
2019-04-01T14:14:04.097Z,21.70
2019-04-01T14:16:32.596Z,21.60
2019-04-01T14:19:01.144Z,21.30
2019-04-01T14:21:29.616Z,21.20
2019-04-01T14:23:58.119Z,21.80
2019-04-01T14:26:26.661Z,21.70
2019-04-01T14:28:55.171Z,22.10
2019-04-01T14:31:23.617Z,22.40
2019-04-01T14:33:52.095Z,21.90
2019-04-01T14:36:21.405Z,21.10
2019-04-01T14:38:50.207Z,20.80
2019-04-01T14:41:18.676Z,21.90
2019-04-01T14:43:47.445Z,21.70
2019-04-01T14:46:15.907Z,21.10
2019-04-01T14:48:44.376Z,20.10
2019-04-01T14:51:12.887Z,20.60
2019-04-01T14:53:41.687Z,21.40
2019-04-01T14:56:10.244Z,21.10
2019-04-01T14:58:38.712Z,20.80
2019-04-01T15:01:07.305Z,21.30
2019-04-01T15:03:35.757Z,20.90
2019-04-01T15:06:04.263Z,20.80
2019-04-01T15:08:32.797Z,20.20
2019-04-01T15:11:01.328Z,20.20
2019-04-01T15:13:29.840Z,19.40
2019-04-01T15:15:58.337Z,20.50
2019-04-01T15:18:26.869Z,20.70
2019-04-01T15:20:55.379Z,20.50
2019-04-01T15:23:25.106Z,20.90
2019-04-01T15:25:54.652Z,21.10
2019-04-01T15:28:23.279Z,20.70
2019-04-01T15:30:51.740Z,21.00
2019-04-01T15:33:21.152Z,20.80
2019-04-01T15:35:49.906Z,20.30
2019-04-01T15:38:18.349Z,20.20
2019-04-01T15:40:47.259Z,19.80
2019-04-01T15:43:15.988Z,20.20
2019-04-01T15:45:44.590Z,20.20
2019-04-01T15:48:13.219Z,20.00
2019-04-01T15:50:41.661Z,20.10
2019-04-01T15:53:10.148Z,20.00
2019-04-01T15:55:38.614Z,19.20
2019-04-01T15:58:07.109Z,18.00
2019-04-01T16:00:35.651Z,17.20
2019-04-01T16:03:04.272Z,16.10
2019-04-01T16:05:34.179Z,15.10
2019-04-01T16:08:02.869Z,14.10
2019-04-01T16:10:31.795Z,13.60
2019-04-01T16:13:00.614Z,13.40
2019-04-01T16:15:32.022Z,13.20
2019-04-01T16:18:02.167Z,13.10
2019-04-01T16:20:33.939Z,12.90
2019-04-01T16:23:01.372Z,12.80
2019-04-01T16:25:30.165Z,12.70
2019-04-01T16:27:58.936Z,12.60
2019-04-01T16:30:28.084Z,12.40
2019-04-01T16:32:58.375Z,12.40
2019-04-01T16:35:27.312Z,12.40
2019-04-01T16:37:59.240Z,12.30
2019-04-01T16:40:26.815Z,12.20
2019-04-01T16:42:55.882Z,12.20
2019-04-01T16:45:24.998Z,12.30
2019-04-01T16:47:54.563Z,12.20
2019-04-01T16:50:24.019Z,12.20
2019-04-01T16:52:53.584Z,12.10
2019-04-01T16:55:22.514Z,12.10
2019-04-01T16:57:51.366Z,12.00
2019-04-01T17:00:20.904Z,11.90
2019-04-01T17:02:50.225Z,11.90
2019-04-01T17:05:22.497Z,11.90
2019-04-01T17:07:51.493Z,11.80
2019-04-01T17:10:21.785Z,11.80
2019-04-01T17:12:50.917Z,11.70
2019-04-01T17:15:21.296Z,11.60
2019-04-01T17:17:50.504Z,11.70
2019-04-01T17:20:19.356Z,11.60
2019-04-01T17:22:48.289Z,11.60
2019-04-01T17:25:17.157Z,11.50
2019-04-01T17:27:45.909Z,11.30
2019-04-01T17:30:15.471Z,11.30
2019-04-01T17:32:44.302Z,11.40
2019-04-01T17:35:13.586Z,11.30
2019-04-01T17:37:42.842Z,11.20
2019-04-01T17:40:11.920Z,11.20
2019-04-01T17:42:40.764Z,11.20
2019-04-01T17:45:24.604Z,11.20
2019-04-01T17:47:53.382Z,11.10
2019-04-01T17:50:22.169Z,11.00
2019-04-01T17:52:50.938Z,10.90
2019-04-01T17:55:19.669Z,10.90
2019-04-01T17:57:48.421Z,10.90
2019-04-01T18:00:24.470Z,10.80
2019-04-01T18:02:53.285Z,10.70
2019-04-01T18:05:22.542Z,10.60
2019-04-01T18:07:51.451Z,10.50
2019-04-01T18:10:20.555Z,10.50
2019-04-01T18:12:49.495Z,10.40
2019-04-01T18:15:20.689Z,10.30
2019-04-01T18:17:49.131Z,10.30
2019-04-01T18:20:19.989Z,10.20
2019-04-01T18:22:48.526Z,10.20
2019-04-01T18:25:17.514Z,10.20
2019-04-01T18:27:46.438Z,10.10
2019-04-01T18:30:16.832Z,10.00
2019-04-01T18:32:45.803Z,10.00
2019-04-01T18:35:14.784Z,9.90
2019-04-01T18:37:43.605Z,9.90
2019-04-01T18:40:12.770Z,9.90
2019-04-01T18:42:41.610Z,9.90
2019-04-01T18:45:11.097Z,9.70
2019-04-01T18:47:39.840Z,9.60
2019-04-01T18:50:09.154Z,9.60
2019-04-01T18:52:38.361Z,9.50
2019-04-01T18:55:08.534Z,9.50
2019-04-01T18:57:38.113Z,9.40
2019-04-01T19:00:09.318Z,9.30
2019-04-01T19:02:38.257Z,9.30
2019-04-01T19:05:07.227Z,9.40
2019-04-01T19:07:35.990Z,9.30
2019-04-01T19:10:07.103Z,9.20
2019-04-01T19:12:36.350Z,9.20
2019-04-01T19:15:07.171Z,9.10
2019-04-01T19:17:35.935Z,9.00
2019-04-01T19:20:07.786Z,9.00
2019-04-01T19:22:36.646Z,9.10
2019-04-01T19:25:07.134Z,8.90
2019-04-01T19:27:35.889Z,8.90
2019-04-01T19:30:08.320Z,8.80
2019-04-01T19:32:38.316Z,8.80
2019-04-01T19:35:09.452Z,8.70
2019-04-01T19:37:37.922Z,8.70
2019-04-01T19:40:08.583Z,8.60
2019-04-01T19:42:39.500Z,8.60
2019-04-01T19:45:08.244Z,8.60
2019-04-01T19:47:37.084Z,8.60
2019-04-01T19:50:07.464Z,8.50
2019-04-01T19:52:36.188Z,8.50
2019-04-01T19:55:06.643Z,8.40
2019-04-01T19:57:35.528Z,8.40
2019-04-01T20:00:06.930Z,8.30
2019-04-01T20:02:35.692Z,8.20
2019-04-01T20:05:06.765Z,8.20
2019-04-01T20:07:35.517Z,8.20
2019-04-01T20:10:05.695Z,8.10
2019-04-01T20:12:34.501Z,8.10
2019-04-01T20:15:05.244Z,8.00
2019-04-01T20:17:34.008Z,8.00
2019-04-01T20:20:02.924Z,8.00
2019-04-01T20:22:31.682Z,7.90
2019-04-01T20:25:00.448Z,7.90
2019-04-01T20:27:29.168Z,7.90
2019-04-01T20:29:57.914Z,7.90
2019-04-01T20:32:26.645Z,7.80
2019-04-01T20:34:57.236Z,7.70
2019-04-01T20:37:25.935Z,7.70
2019-04-01T20:39:55.364Z,7.70
2019-04-01T20:42:24.510Z,7.60
2019-04-01T20:44:53.225Z,7.60
2019-04-01T20:47:22.014Z,7.60
2019-04-01T20:49:50.841Z,7.50
2019-04-01T20:52:19.607Z,7.50
2019-04-01T20:54:48.362Z,7.40
2019-04-01T20:57:17.321Z,7.40
2019-04-01T20:59:46.650Z,7.30
2019-04-01T21:02:15.413Z,7.30
2019-04-01T21:04:44.181Z,7.30
2019-04-01T21:07:13.210Z,7.20
2019-04-01T21:09:41.985Z,7.20
2019-04-01T21:12:10.740Z,7.10
2019-04-01T21:14:39.480Z,7.10
2019-04-01T21:17:08.211Z,7.10
2019-04-01T21:19:37.192Z,7.00
2019-04-01T21:22:07.198Z,7.00
2019-04-01T21:24:36.849Z,7.00
2019-04-01T21:27:05.891Z,6.90
2019-04-01T21:29:34.643Z,6.90
2019-04-01T21:32:03.401Z,6.90
2019-04-01T21:34:32.124Z,6.80
2019-04-01T21:37:03.229Z,6.80
2019-04-01T21:39:31.367Z,6.80
2019-04-01T21:42:01.812Z,6.80
2019-04-01T21:44:30.532Z,6.70
2019-04-01T21:46:59.310Z,6.60
2019-04-01T21:49:28.480Z,6.60
2019-04-01T21:51:57.274Z,6.60
2019-04-01T21:54:26.222Z,6.50
2019-04-01T21:56:56.074Z,6.50
2019-04-01T21:59:24.912Z,6.40
2019-04-01T22:01:53.787Z,6.40
2019-04-01T22:04:22.621Z,6.40
2019-04-01T22:06:51.436Z,6.40
2019-04-01T22:09:20.367Z,6.40
2019-04-01T22:11:49.173Z,6.30
2019-04-01T22:14:18.312Z,6.30
2019-04-01T22:16:47.198Z,6.20
2019-04-01T22:19:17.011Z,6.20
2019-04-01T22:21:45.868Z,6.20
2019-04-01T22:24:14.913Z,6.20
2019-04-01T22:26:43.737Z,6.10
2019-04-01T22:29:12.473Z,6.10
2019-04-01T22:31:41.612Z,6.00
2019-04-01T22:34:10.433Z,6.00
2019-04-01T22:36:40.081Z,6.00
2019-04-01T22:39:09.203Z,6.00
2019-04-01T22:41:38.009Z,5.90
2019-04-01T22:44:06.796Z,5.90
2019-04-01T22:46:35.670Z,5.90
2019-04-01T22:49:04.675Z,5.90
2019-04-01T22:51:33.451Z,5.90
2019-04-01T22:54:02.328Z,5.80
2019-04-01T22:56:31.736Z,5.70
2019-04-01T22:59:00.644Z,5.80
2019-04-01T23:01:29.405Z,5.70
2019-04-01T23:03:58.173Z,5.70
2019-04-01T23:06:27.022Z,5.70
2019-04-01T23:08:55.924Z,5.60
2019-04-01T23:11:26.356Z,5.60
2019-04-01T23:13:55.077Z,5.60
2019-04-01T23:16:23.853Z,5.50
2019-04-01T23:18:52.643Z,5.60
2019-04-01T23:21:21.693Z,5.50
2019-04-01T23:23:50.441Z,5.50
2019-04-01T23:26:19.257Z,5.50
2019-04-01T23:28:48.029Z,5.40
2019-04-01T23:31:17.230Z,5.40
2019-04-01T23:33:46.860Z,5.40
2019-04-01T23:36:15.697Z,5.40
2019-04-01T23:38:44.446Z,5.30
2019-04-01T23:41:13.219Z,5.30
2019-04-01T23:43:41.965Z,5.30
2019-04-01T23:46:10.684Z,5.30
2019-04-01T23:48:39.481Z,5.20
2019-04-01T23:51:08.255Z,5.20
2019-04-01T23:53:37.032Z,5.20
2019-04-01T23:56:05.914Z,5.20
2019-04-01T23:58:36.268Z,5.20
